Time;durP1;ratioP1;P1;durP2;ratioP2;P2;SDS_P1;SDS_P2;PMS_P1;PMS_P2;Temp;Humidity;BMP_temperature;BMP_pressure;BME280_temperature;BME280_humidity;BME280_pressure;Samples;Min_cycle;Max_cycle;Signal;HPM_P1;HPM_P2
2021/05/26 00:00:41;;;;;;;3.60;0.98;;;;;;;;;;4878271;29;20051;-68
2021/05/26 00:03:07;;;;;;;2.30;0.65;;;;;;;;;;4878766;29;20068;-71
2021/05/26 00:05:34;;;;;;;2.80;0.82;;;;;;;;;;4878641;29;20037;-63
2021/05/26 00:08:00;;;;;;;4.22;1.05;;;;;;;;;;4878476;29;20396;-62
2021/05/26 00:10:26;;;;;;;2.78;0.82;;;;;;;;;;4878291;29;20544;-64
2021/05/26 00:12:52;;;;;;;4.32;0.98;;;;;;;;;;4878186;29;20489;-67
2021/05/26 00:15:18;;;;;;;1.42;0.75;;;;;;;;;;4878479;29;20818;-71
2021/05/26 00:17:44;;;;;;;2.55;0.98;;;;;;;;;;4878371;29;20028;-71
2021/05/26 00:20:10;;;;;;;3.35;0.88;;;;;;;;;;4878156;29;20044;-70
2021/05/26 00:22:36;;;;;;;2.65;0.75;;;;;;;;;;4878495;29;20033;-62
2021/05/26 00:25:03;;;;;;;4.53;1.00;;;;;;;;;;4878328;29;20033;-66
2021/05/26 00:27:30;;;;;;;3.40;0.80;;;;;;;;;;4878418;29;20092;-72
2021/05/26 00:29:56;;;;;;;3.80;1.20;;;;;;;;;;4878023;29;20029;-64
2021/05/26 00:32:22;;;;;;;3.30;0.80;;;;;;;;;;4878067;29;20025;-69
2021/05/26 00:34:48;;;;;;;1.63;0.63;;;;;;;;;;4878047;29;20021;-65
2021/05/26 00:37:14;;;;;;;1.40;0.52;;;;;;;;;;4878085;29;20057;-62
2021/05/26 00:39:40;;;;;;;1.58;0.70;;;;;;;;;;4860539;29;20425;-62
2021/05/26 00:42:06;;;;;;;1.95;0.60;;;;;;;;;;4877867;29;20129;-62
2021/05/26 00:44:32;;;;;;;1.70;0.60;;;;;;;;;;4877672;29;20033;-62
2021/05/26 00:46:58;;;;;;;1.20;0.60;;;;;;;;;;4878011;29;20037;-73
2021/05/26 00:49:24;;;;;;;1.55;0.68;;;;;;;;;;4877545;29;20089;-63
2021/05/26 00:51:50;;;;;;;0.93;0.60;;;;;;;;;;4877977;29;20513;-68
2021/05/26 00:54:16;;;;;;;2.78;0.80;;;;;;;;;;4860782;29;20033;-71
2021/05/26 00:56:43;;;;;;;2.45;0.70;;;;;;;;;;4877741;29;20037;-70
2021/05/26 00:59:09;;;;;;;1.38;0.63;;;;;;;;;;4877296;29;20482;-72
2021/05/26 01:01:35;;;;;;;3.30;0.70;;;;;;;;;;4877550;29;20052;-64
2021/05/26 01:04:02;;;;;;;1.50;0.60;;;;;;;;;;4877652;29;20032;-63
2021/05/26 01:06:28;;;;;;;1.58;0.60;;;;;;;;;;4877597;29;20095;-67
2021/05/26 01:08:54;;;;;;;1.95;0.80;;;;;;;;;;4877412;29;20049;-62
2021/05/26 01:11:20;;;;;;;3.88;1.05;;;;;;;;;;4877706;29;20066;-66
2021/05/26 01:13:46;;;;;;;3.10;0.98;;;;;;;;;;4877510;29;20909;-62
2021/05/26 01:16:12;;;;;;;1.50;0.63;;;;;;;;;;4877690;29;20029;-65
2021/05/26 01:18:39;;;;;;;3.92;0.85;;;;;;;;;;4877493;29;20028;-62
2021/05/26 01:21:06;;;;;;;1.98;0.70;;;;;;;;;;4877279;29;20047;-69
2021/05/26 01:23:33;;;;;;;2.72;0.80;;;;;;;;;;4877709;29;20092;-69
2021/05/26 01:26:00;;;;;;;2.28;0.70;;;;;;;;;;4877388;29;20029;-64
2021/05/26 01:28:28;;;;;;;2.42;0.70;;;;;;;;;;4877423;29;20075;-71
2021/05/26 01:30:55;;;;;;;1.75;0.75;;;;;;;;;;4860435;29;20750;-63
2021/05/26 01:33:21;;;;;;;2.00;0.70;;;;;;;;;;4877154;29;20048;-72
2021/05/26 01:35:48;;;;;;;2.22;0.70;;;;;;;;;;4877210;29;20036;-70
2021/05/26 01:38:23;;;;;;;3.95;0.93;;;;;;;;;;4860088;29;20474;-64
2021/05/26 01:40:50;;;;;;;1.58;0.60;;;;;;;;;;4876738;29;20045;-68
2021/05/26 01:43:16;;;;;;;2.88;0.70;;;;;;;;;;4876842;29;20025;-68
2021/05/26 01:45:42;;;;;;;2.35;0.88;;;;;;;;;;4876986;29;20029;-63
2021/05/26 01:48:08;;;;;;;1.58;0.80;;;;;;;;;;4877250;29;20032;-66
2021/05/26 01:50:35;;;;;;;1.70;0.70;;;;;;;;;;4876986;29;20037;-68
2021/05/26 01:53:05;;;;;;;1.48;0.80;;;;;;;;;;4876758;29;20541;-63
2021/05/26 01:55:35;;;;;;;2.72;0.60;;;;;;;;;;4876809;29;20033;-69
2021/05/26 01:58:02;;;;;;;3.17;0.80;;;;;;;;;;4877247;29;20482;-72
2021/05/26 02:00:28;;;;;;;2.42;0.90;;;;;;;;;;4876739;29;20420;-65
2021/05/26 02:02:54;;;;;;;2.58;1.00;;;;;;;;;;4876858;29;20493;-68
2021/05/26 02:05:20;;;;;;;2.17;0.70;;;;;;;;;;4877897;29;20473;-69
2021/05/26 02:07:47;;;;;;;2.03;0.70;;;;;;;;;;4878854;29;20029;-71
2021/05/26 02:10:17;;;;;;;2.88;0.70;;;;;;;;;;4878005;29;20049;-65
2021/05/26 02:12:46;;;;;;;1.88;0.90;;;;;;;;;;4876553;29;20017;-69
2021/05/26 02:15:14;;;;;;;2.10;0.70;;;;;;;;;;4876804;29;20025;-66
2021/05/26 02:17:40;;;;;;;2.80;0.85;;;;;;;;;;4877059;29;20060;-65
2021/05/26 02:20:07;;;;;;;3.20;0.80;;;;;;;;;;4876700;29;20083;-71
2021/05/26 02:22:34;;;;;;;2.88;0.75;;;;;;;;;;4876754;29;20108;-67
2021/05/26 02:25:00;;;;;;;1.83;0.80;;;;;;;;;;4876686;29;20569;-63
2021/05/26 02:27:26;;;;;;;1.95;0.80;;;;;;;;;;4873579;29;20037;-65
2021/05/26 02:29:52;;;;;;;2.95;0.80;;;;;;;;;;4871983;29;20033;-71
2021/05/26 02:32:20;;;;;;;6.97;1.10;;;;;;;;;;4873748;29;20133;-68
2021/05/26 02:34:46;;;;;;;2.22;0.75;;;;;;;;;;4872767;29;20112;-65
2021/05/26 02:37:12;;;;;;;1.95;0.80;;;;;;;;;;4874810;29;20033;-66
2021/05/26 02:39:38;;;;;;;1.70;1.00;;;;;;;;;;4876378;29;20092;-66
2021/05/26 02:42:05;;;;;;;2.22;0.80;;;;;;;;;;4877193;29;20126;-69
2021/05/26 02:44:31;;;;;;;1.77;0.75;;;;;;;;;;4876595;29;20067;-64
2021/05/26 02:46:57;;;;;;;2.25;0.77;;;;;;;;;;4876561;29;20294;-66
2021/05/26 02:49:23;;;;;;;3.40;0.90;;;;;;;;;;4876520;29;20124;-66
2021/05/26 02:51:49;;;;;;;1.77;0.88;;;;;;;;;;4876638;29;20028;-63
2021/05/26 02:54:15;;;;;;;4.85;0.88;;;;;;;;;;4876830;29;20037;-62
2021/05/26 02:56:41;;;;;;;2.35;0.90;;;;;;;;;;4876377;29;20040;-64
2021/05/26 02:59:07;;;;;;;3.60;0.90;;;;;;;;;;4876384;29;20537;-69
2021/05/26 03:01:34;;;;;;;2.42;1.08;;;;;;;;;;4876536;29;20041;-63
2021/05/26 03:04:00;;;;;;;1.92;1.20;;;;;;;;;;4879345;29;20413;-68
2021/05/26 03:06:27;;;;;;;2.05;0.75;;;;;;;;;;4879788;29;20056;-69
2021/05/26 03:08:53;;;;;;;4.13;1.35;;;;;;;;;;4879167;29;20049;-66
2021/05/26 03:11:19;;;;;;;3.70;0.82;;;;;;;;;;4879432;29;20033;-63
2021/05/26 03:13:45;;;;;;;2.10;1.15;;;;;;;;;;4879584;29;20090;-67
2021/05/26 03:16:11;;;;;;;3.95;0.95;;;;;;;;;;4879481;29;20025;-70
2021/05/26 03:18:38;;;;;;;2.50;1.05;;;;;;;;;;4879595;29;20040;-72
2021/05/26 03:21:04;;;;;;;2.97;0.98;;;;;;;;;;4879147;29;20045;-71
2021/05/26 03:23:30;;;;;;;2.55;1.27;;;;;;;;;;4879214;29;20032;-70
2021/05/26 03:25:56;;;;;;;3.08;1.00;;;;;;;;;;4879247;29;20076;-64
2021/05/26 03:28:22;;;;;;;5.32;1.17;;;;;;;;;;4879390;29;20029;-66
2021/05/26 03:30:48;;;;;;;3.53;0.98;;;;;;;;;;4879196;29;20033;-69
2021/05/26 03:33:15;;;;;;;2.22;0.82;;;;;;;;;;4879207;29;20112;-64
2021/05/26 03:35:42;;;;;;;1.80;0.88;;;;;;;;;;4879112;29;20113;-68
2021/05/26 03:38:08;;;;;;;4.53;1.40;;;;;;;;;;4879208;29;20033;-69
2021/05/26 03:40:35;;;;;;;6.75;1.73;;;;;;;;;;4878760;29;20041;-63
2021/05/26 03:43:01;;;;;;;2.15;1.30;;;;;;;;;;4878929;29;20104;-64
2021/05/26 03:45:28;;;;;;;2.40;1.20;;;;;;;;;;4879100;29;20029;-68
2021/05/26 03:47:55;;;;;;;3.50;1.08;;;;;;;;;;4879127;29;20469;-66
2021/05/26 03:50:22;;;;;;;3.30;1.13;;;;;;;;;;4879125;29;20039;-63
2021/05/26 03:52:48;;;;;;;5.43;1.30;;;;;;;;;;4878121;29;20061;-64
2021/05/26 03:55:16;;;;;;;3.60;1.05;;;;;;;;;;4878990;29;20036;-70
2021/05/26 03:57:42;;;;;;;2.85;1.05;;;;;;;;;;4878882;29;20029;-69
2021/05/26 04:00:09;;;;;;;4.22;1.00;;;;;;;;;;4878759;29;20173;-65
2021/05/26 04:02:35;;;;;;;2.17;1.10;;;;;;;;;;4878912;29;20112;-63
2021/05/26 04:05:02;;;;;;;2.17;1.13;;;;;;;;;;4878433;29;20092;-70
2021/05/26 04:07:28;;;;;;;4.78;1.00;;;;;;;;;;4878245;29;20465;-69
2021/05/26 04:09:54;;;;;;;3.72;1.48;;;;;;;;;;4878228;29;20064;-62
2021/05/26 04:12:21;;;;;;;3.13;1.00;;;;;;;;;;4878788;29;20156;-61
2021/05/26 04:14:47;;;;;;;1.98;1.10;;;;;;;;;;4878491;29;20021;-62
2021/05/26 04:17:13;;;;;;;2.58;1.13;;;;;;;;;;4878545;29;20025;-65
2021/05/26 04:19:39;;;;;;;2.92;1.15;;;;;;;;;;4878792;29;20037;-66
2021/05/26 04:22:05;;;;;;;2.13;1.00;;;;;;;;;;4878260;29;20057;-61
2021/05/26 04:24:31;;;;;;;3.50;1.48;;;;;;;;;;4878502;29;20025;-68
2021/05/26 04:26:57;;;;;;;3.38;1.10;;;;;;;;;;4878544;29;20040;-70
2021/05/26 04:29:23;;;;;;;2.95;1.10;;;;;;;;;;4878276;29;20411;-66
2021/05/26 04:31:49;;;;;;;2.00;0.98;;;;;;;;;;4878407;29;20037;-63
2021/05/26 04:34:15;;;;;;;4.00;1.00;;;;;;;;;;4877842;29;20111;-62
2021/05/26 04:36:42;;;;;;;2.25;1.00;;;;;;;;;;4878344;29;20070;-65
2021/05/26 04:39:08;;;;;;;4.82;1.50;;;;;;;;;;4877510;29;20154;-68
2021/05/26 04:41:34;;;;;;;4.75;1.70;;;;;;;;;;4877889;29;20040;-65
2021/05/26 04:44:00;;;;;;;6.45;1.20;;;;;;;;;;4878041;29;20029;-66
2021/05/26 04:46:26;;;;;;;4.38;1.60;;;;;;;;;;4878251;29;20033;-64
2021/05/26 04:48:52;;;;;;;3.42;1.40;;;;;;;;;;4877310;29;20036;-69
2021/05/26 04:51:18;;;;;;;3.28;1.30;;;;;;;;;;4877610;29;20021;-67
2021/05/26 04:53:45;;;;;;;4.32;1.15;;;;;;;;;;4877885;29;20481;-64
2021/05/26 04:56:11;;;;;;;3.05;1.30;;;;;;;;;;4877917;29;20077;-69
2021/05/26 04:58:37;;;;;;;2.85;1.30;;;;;;;;;;4878221;29;20477;-63
2021/05/26 05:01:03;;;;;;;5.32;1.85;;;;;;;;;;4877426;29;20064;-62
2021/05/26 05:03:29;;;;;;;6.47;2.58;;;;;;;;;;4877824;29;20029;-69
2021/05/26 05:05:55;;;;;;;3.55;1.27;;;;;;;;;;4877926;29;20037;-62
2021/05/26 05:08:21;;;;;;;4.47;1.38;;;;;;;;;;4877722;29;20041;-69
2021/05/26 05:10:47;;;;;;;3.72;1.40;;;;;;;;;;4877530;29;20406;-70
2021/05/26 05:13:13;;;;;;;2.47;1.60;;;;;;;;;;4877228;29;20048;-62
2021/05/26 05:15:39;;;;;;;4.97;2.30;;;;;;;;;;4877774;29;20089;-69
2021/05/26 05:18:05;;;;;;;3.95;1.30;;;;;;;;;;4877743;29;20035;-62
2021/05/26 05:20:31;;;;;;;4.43;1.20;;;;;;;;;;4877533;29;20041;-70
2021/05/26 05:22:57;;;;;;;3.25;1.40;;;;;;;;;;4877546;29;20036;-67
2021/05/26 05:25:24;;;;;;;5.63;1.45;;;;;;;;;;4876954;29;20057;-63
2021/05/26 05:27:50;;;;;;;3.70;1.30;;;;;;;;;;4876570;29;20025;-63
2021/05/26 05:30:17;;;;;;;3.80;1.45;;;;;;;;;;4877308;29;20025;-70
2021/05/26 05:32:43;;;;;;;2.92;1.58;;;;;;;;;;4877210;29;20040;-67
2021/05/26 05:35:10;;;;;;;3.67;1.30;;;;;;;;;;4876814;29;20023;-64
2021/05/26 05:37:36;;;;;;;3.83;1.60;;;;;;;;;;4876861;29;20096;-68
2021/05/26 05:40:02;;;;;;;5.38;1.67;;;;;;;;;;4877014;29;20037;-66
2021/05/26 05:42:28;;;;;;;4.05;1.40;;;;;;;;;;4876868;29;20041;-66
2021/05/26 05:44:55;;;;;;;7.63;1.50;;;;;;;;;;4876865;29;20379;-65
2021/05/26 05:47:21;;;;;;;2.75;1.25;;;;;;;;;;4875933;29;20045;-66
2021/05/26 05:49:47;;;;;;;6.10;1.52;;;;;;;;;;4878497;29;20567;-65
2021/05/26 05:52:14;;;;;;;2.92;1.48;;;;;;;;;;4876812;29;20032;-66
2021/05/26 05:54:40;;;;;;;6.32;1.70;;;;;;;;;;4859805;29;20476;-64
2021/05/26 05:57:06;;;;;;;6.15;1.60;;;;;;;;;;4876697;29;20029;-69
2021/05/26 05:59:33;;;;;;;6.35;1.70;;;;;;;;;;4876559;29;20029;-67
2021/05/26 06:01:59;;;;;;;7.93;2.00;;;;;;;;;;4877014;29;20121;-62
2021/05/26 06:04:25;;;;;;;5.65;2.00;;;;;;;;;;4877404;29;20061;-61
2021/05/26 06:06:51;;;;;;;6.90;2.20;;;;;;;;;;4877252;29;20505;-62
2021/05/26 06:09:17;;;;;;;9.38;2.47;;;;;;;;;;4876867;29;20136;-65
2021/05/26 06:11:43;;;;;;;6.05;1.88;;;;;;;;;;4877024;29;20044;-67
2021/05/26 06:14:09;;;;;;;4.00;1.60;;;;;;;;;;4876565;29;20128;-63
2021/05/26 06:16:36;;;;;;;7.90;1.85;;;;;;;;;;4876487;29;20422;-67
2021/05/26 06:19:02;;;;;;;7.43;1.77;;;;;;;;;;4875884;29;20033;-63
2021/05/26 06:21:28;;;;;;;4.65;1.70;;;;;;;;;;4876432;29;20052;-65
2021/05/26 06:23:54;;;;;;;9.80;2.33;;;;;;;;;;4877013;29;20089;-62
2021/05/26 06:26:20;;;;;;;9.68;2.90;;;;;;;;;;4876371;29;20104;-65
2021/05/26 06:28:46;;;;;;;5.30;1.85;;;;;;;;;;4876585;29;20040;-63
2021/05/26 06:31:14;;;;;;;9.60;1.98;;;;;;;;;;4876691;29;20036;-69
2021/05/26 06:33:42;;;;;;;7.00;1.98;;;;;;;;;;4876709;29;20037;-64
2021/05/26 06:36:09;;;;;;;4.55;1.67;;;;;;;;;;4876468;29;20043;-66
2021/05/26 06:38:35;;;;;;;5.68;1.73;;;;;;;;;;4878774;29;20033;-66
2021/05/26 06:41:01;;;;;;;3.17;1.20;;;;;;;;;;4879496;29;20466;-64
2021/05/26 06:43:27;;;;;;;7.90;1.60;;;;;;;;;;4879691;29;20238;-65
2021/05/26 06:45:53;;;;;;;6.13;1.60;;;;;;;;;;4870140;29;20401;-65
2021/05/26 06:48:19;;;;;;;5.63;1.48;;;;;;;;;;4870481;29;20335;-67
2021/05/26 06:50:45;;;;;;;5.45;1.23;;;;;;;;;;4879739;29;20112;-66
2021/05/26 06:53:11;;;;;;;4.18;1.30;;;;;;;;;;4879620;29;20393;-68
2021/05/26 06:55:37;;;;;;;6.15;1.70;;;;;;;;;;4879129;29;20067;-68
2021/05/26 06:58:03;;;;;;;3.40;1.33;;;;;;;;;;4877840;29;20021;-73
2021/05/26 07:00:30;;;;;;;5.53;1.45;;;;;;;;;;4862505;29;20401;-68
2021/05/26 07:02:56;;;;;;;2.00;1.08;;;;;;;;;;4879620;29;20021;-63
2021/05/26 07:05:23;;;;;;;7.55;1.40;;;;;;;;;;4878928;29;20029;-62
2021/05/26 07:07:49;;;;;;;3.53;1.55;;;;;;;;;;4880174;29;20029;-60
2021/05/26 07:10:16;;;;;;;6.00;1.60;;;;;;;;;;4879670;29;20057;-69
2021/05/26 07:12:42;;;;;;;3.00;1.10;;;;;;;;;;4878802;29;20033;-68
2021/05/26 07:15:08;;;;;;;7.47;1.73;;;;;;;;;;4878469;29;20041;-64
2021/05/26 07:17:34;;;;;;;2.90;1.30;;;;;;;;;;4877430;29;20116;-70
2021/05/26 07:20:02;;;;;;;2.13;1.05;;;;;;;;;;4877981;29;20060;-68
2021/05/26 07:22:29;;;;;;;2.70;1.17;;;;;;;;;;4879207;29;20084;-72
2021/05/26 07:24:55;;;;;;;3.30;1.20;;;;;;;;;;4879237;29;20032;-66
2021/05/26 07:27:21;;;;;;;5.60;1.50;;;;;;;;;;4879257;29;20036;-68
2021/05/26 07:29:47;;;;;;;5.35;1.90;;;;;;;;;;4879006;29;20104;-63
2021/05/26 07:32:13;;;;;;;2.00;0.93;;;;;;;;;;4879178;29;20029;-68
2021/05/26 07:34:39;;;;;;;4.00;1.23;;;;;;;;;;4879262;29;20029;-62
2021/05/26 07:37:05;;;;;;;3.65;1.30;;;;;;;;;;4879047;29;20036;-61
2021/05/26 07:39:35;;;;;;;2.72;1.30;;;;;;;;;;4878176;29;20169;-68
2021/05/26 07:42:02;;;;;;;2.90;1.40;;;;;;;;;;4877426;29;20029;-62
2021/05/26 07:44:28;;;;;;;5.88;1.70;;;;;;;;;;4878036;29;20033;-62
2021/05/26 07:46:54;;;;;;;3.95;1.20;;;;;;;;;;4878464;29;20029;-63
2021/05/26 07:49:21;;;;;;;2.90;1.33;;;;;;;;;;4877672;29;20021;-65
2021/05/26 07:51:50;;;;;;;2.53;0.75;;;;;;;;;;4878574;29;20474;-65
2021/05/26 07:54:16;;;;;;;2.65;1.10;;;;;;;;;;4878547;29;20021;-60
2021/05/26 07:56:43;;;;;;;2.40;1.10;;;;;;;;;;4878229;29;20025;-66
2021/05/26 07:59:09;;;;;;;4.35;1.25;;;;;;;;;;4878076;29;20025;-67
2021/05/26 08:01:36;;;;;;;4.72;1.55;;;;;;;;;;4861688;29;20128;-66
2021/05/26 08:04:02;;;;;;;9.18;1.15;;;;;;;;;;4878156;29;20265;-63
2021/05/26 08:06:28;;;;;;;3.97;1.10;;;;;;;;;;4861595;29;20037;-62
2021/05/26 08:08:54;;;;;;;2.90;1.17;;;;;;;;;;4845295;29;20170;-68
2021/05/26 08:11:21;;;;;;;4.65;2.40;;;;;;;;;;4877818;29;20101;-67
2021/05/26 08:13:47;;;;;;;2.38;0.70;;;;;;;;;;4875676;29;20035;-64
2021/05/26 08:16:13;;;;;;;2.35;0.90;;;;;;;;;;4896392;29;20039;-64
2021/05/26 08:18:40;;;;;;;3.95;0.77;;;;;;;;;;4894725;29;20029;-67
2021/05/26 08:21:06;;;;;;;2.63;0.70;;;;;;;;;;4895793;29;20048;-63
2021/05/26 08:23:32;;;;;;;2.60;1.10;;;;;;;;;;4892140;29;20035;-68
2021/05/26 08:25:58;;;;;;;2.30;0.90;;;;;;;;;;4895196;29;20033;-61
2021/05/26 08:28:26;;;;;;;2.15;0.73;;;;;;;;;;4896232;29;20033;-61
2021/05/26 08:30:52;;;;;;;2.70;0.82;;;;;;;;;;4896514;29;20064;-68
2021/05/26 08:33:18;;;;;;;1.98;1.00;;;;;;;;;;4896008;29;20081;-63
2021/05/26 08:35:44;;;;;;;3.50;1.00;;;;;;;;;;4896146;29;20037;-61
2021/05/26 08:38:10;;;;;;;2.17;1.00;;;;;;;;;;4896317;29;20119;-62
2021/05/26 08:40:36;;;;;;;2.97;1.02;;;;;;;;;;4886284;29;20069;-65
2021/05/26 08:43:03;;;;;;;3.33;0.82;;;;;;;;;;4877208;29;20064;-62
2021/05/26 08:45:29;;;;;;;1.65;0.65;;;;;;;;;;4879159;29;20068;-64
2021/05/26 08:47:56;;;;;;;2.40;1.02;;;;;;;;;;4875794;29;20033;-62
2021/05/26 08:50:22;;;;;;;4.00;1.25;;;;;;;;;;4873979;29;20025;-61
2021/05/26 08:52:49;;;;;;;3.42;1.30;;;;;;;;;;4875596;29;20029;-62
2021/05/26 08:55:15;;;;;;;2.38;1.00;;;;;;;;;;4876209;29;20024;-65
2021/05/26 08:57:41;;;;;;;3.28;1.00;;;;;;;;;;4879603;29;20033;-64
2021/05/26 09:00:08;;;;;;;3.95;1.05;;;;;;;;;;4878170;29;20067;-61
2021/05/26 09:02:37;;;;;;;2.60;1.20;;;;;;;;;;4876056;29;20032;-67
2021/05/26 09:05:04;;;;;;;4.95;1.05;;;;;;;;;;4843572;29;20037;-61
2021/05/26 09:07:33;;;;;;;3.67;1.10;;;;;;;;;;4877375;29;20401;-67
2021/05/26 09:10:00;;;;;;;4.88;1.00;;;;;;;;;;4876026;29;20060;-61
2021/05/26 09:12:30;;;;;;;2.85;0.90;;;;;;;;;;4877274;29;20152;-68
2021/05/26 09:15:02;;;;;;;4.18;1.00;;;;;;;;;;4876644;29;20060;-61
2021/05/26 09:17:29;;;;;;;4.88;1.05;;;;;;;;;;4876733;29;20509;-62
2021/05/26 09:20:14;;;;;;;1.65;0.88;;;;;;;;;;4877134;29;20555;-64
2021/05/26 09:22:42;;;;;;;2.63;0.80;;;;;;;;;;4878281;29;20075;-64
2021/05/26 09:25:09;;;;;;;1.73;0.70;;;;;;;;;;4876779;29;20035;-64
2021/05/26 09:27:35;;;;;;;2.13;0.70;;;;;;;;;;4877131;29;20061;-65
2021/05/26 09:30:01;;;;;;;6.80;0.90;;;;;;;;;;4873205;29;20471;-63
2021/05/26 09:32:30;;;;;;;4.82;1.00;;;;;;;;;;4865692;29;20508;-60
2021/05/26 09:35:00;;;;;;;2.30;0.90;;;;;;;;;;4873719;29;20033;-67
2021/05/26 09:37:34;;;;;;;2.72;0.80;;;;;;;;;;4875502;29;20036;-64
2021/05/26 09:40:03;;;;;;;3.22;0.90;;;;;;;;;;4875921;29;20144;-63
2021/05/26 09:42:32;;;;;;;5.43;1.10;;;;;;;;;;4875541;29;20074;-70
2021/05/26 09:45:13;;;;;;;2.97;0.90;;;;;;;;;;4879206;29;20037;-65
2021/05/26 09:47:40;;;;;;;2.92;1.13;;;;;;;;;;4860525;29;20107;-66
2021/05/26 09:50:24;;;;;;;3.20;1.00;;;;;;;;;;4859505;29;20037;-61
2021/05/26 09:52:59;;;;;;;5.13;1.23;;;;;;;;;;4873806;29;20021;-67
2021/05/26 09:55:26;;;;;;;2.47;0.80;;;;;;;;;;4875335;29;20037;-68
2021/05/26 09:57:52;;;;;;;2.75;1.00;;;;;;;;;;4858592;29;20125;-68
2021/05/26 10:00:18;;;;;;;3.53;1.13;;;;;;;;;;4874561;29;20053;-62
2021/05/26 10:02:45;;;;;;;2.88;0.80;;;;;;;;;;4875051;29;20025;-62
2021/05/26 10:05:15;;;;;;;5.35;1.30;;;;;;;;;;4875101;29;20033;-60
2021/05/26 10:07:41;;;;;;;1.60;0.80;;;;;;;;;;4876609;29;20107;-64
2021/05/26 10:10:09;;;;;;;2.60;0.77;;;;;;;;;;4874272;29;20049;-61
2021/05/26 10:12:38;;;;;;;1.75;0.90;;;;;;;;;;4875722;29;20040;-60
2021/05/26 10:15:05;;;;;;;3.33;0.85;;;;;;;;;;4875881;29;20385;-61
2021/05/26 10:17:36;;;;;;;4.05;1.30;;;;;;;;;;4874600;29;20037;-60
2021/05/26 10:20:05;;;;;;;5.10;0.83;;;;;;;;;;4877955;29;20088;-67
2021/05/26 10:22:31;;;;;;;4.03;1.50;;;;;;;;;;4876623;29;20113;-60
2021/05/26 10:24:58;;;;;;;3.22;1.10;;;;;;;;;;4877572;29;20033;-66
2021/05/26 10:27:59;;;;;;;3.97;0.90;;;;;;;;;;4880388;29;20111;-67
2021/05/26 10:30:27;;;;;;;4.32;1.25;;;;;;;;;;4785518;30;20433;-66
2021/05/26 10:32:56;;;;;;;2.92;1.10;;;;;;;;;;4786319;30;20043;-65
2021/05/26 10:35:23;;;;;;;3.63;1.10;;;;;;;;;;4785939;30;20039;-62
2021/05/26 10:37:56;;;;;;;4.40;1.65;;;;;;;;;;4786020;30;20135;-59
2021/05/26 10:40:30;;;;;;;3.75;1.38;;;;;;;;;;4785387;30;20055;-65
2021/05/26 10:42:57;;;;;;;3.30;1.52;;;;;;;;;;4784974;30;20035;-66
2021/05/26 10:45:35;;;;;;;8.73;1.50;;;;;;;;;;4786027;30;20054;-63
2021/05/26 10:48:01;;;;;;;6.18;1.45;;;;;;;;;;4786012;30;20626;-68
2021/05/26 10:50:42;;;;;;;3.08;1.27;;;;;;;;;;4785291;30;20039;-66
2021/05/26 10:53:09;;;;;;;5.40;1.30;;;;;;;;;;4785917;30;20069;-61
2021/05/26 10:55:36;;;;;;;2.25;0.90;;;;;;;;;;4785914;30;20048;-65
2021/05/26 10:58:11;;;;;;;4.18;0.90;;;;;;;;;;4786083;30;20138;-61
2021/05/26 11:00:38;;;;;;;3.47;0.82;;;;;;;;;;4787239;30;20292;-66
2021/05/26 11:03:22;;;;;;;2.72;1.05;;;;;;;;;;4785582;30;20176;-66
2021/05/26 11:05:48;;;;;;;3.00;0.80;;;;;;;;;;4879406;29;20044;-60
2021/05/26 11:08:52;;;;;;;2.17;0.90;;;;;;;;;;4879220;29;20474;-59
2021/05/26 11:11:24;;;;;;;4.75;1.75;;;;;;;;;;4785299;30;20058;-63
2021/05/26 11:13:50;;;;;;;;;;;;;;;;;;4785856;30;20035;-60
2021/05/26 11:16:16;;;;;;;4.78;1.50;;;;;;;;;;4786146;30;19913;-66
2021/05/26 11:18:59;;;;;;;3.10;1.00;;;;;;;;;;4785712;30;20484;-64
2021/05/26 11:21:28;;;;;;;2.22;1.02;;;;;;;;;;4785362;29;20063;-60
2021/05/26 11:23:54;;;;;;;7.50;1.50;;;;;;;;;;4785183;29;20562;-60
2021/05/26 11:26:20;;;;;;;6.43;2.25;;;;;;;;;;4770658;29;20069;-61
2021/05/26 11:28:50;;;;;;;1.63;0.90;;;;;;;;;;4787463;30;20034;-68
2021/05/26 11:31:16;;;;;;;2.30;1.20;;;;;;;;;;4785335;30;20031;-67
2021/05/26 11:34:08;;;;;;;4.97;1.20;;;;;;;;;;4784858;30;20122;-68
2021/05/26 11:36:41;;;;;;;2.95;0.95;;;;;;;;;;4782878;30;20105;-68
2021/05/26 11:39:16;;;;;;;2.25;0.90;;;;;;;;;;4769758;30;20057;-68
2021/05/26 11:41:42;;;;;;;3.65;1.00;;;;;;;;;;4784739;30;20046;-67
2021/05/26 11:44:09;;;;;;;2.47;0.80;;;;;;;;;;4785131;30;20144;-66
2021/05/26 11:46:35;;;;;;;2.53;1.00;;;;;;;;;;4823239;29;20037;-64
2021/05/26 11:49:13;;;;;;;2.53;0.80;;;;;;;;;;4878656;29;20033;-66
2021/05/26 11:51:39;;;;;;;1.60;0.80;;;;;;;;;;4878442;29;20116;-66
2021/05/26 11:54:06;;;;;;;2.53;0.70;;;;;;;;;;4878523;29;20025;-64
2021/05/26 11:56:35;;;;;;;3.35;0.63;;;;;;;;;;4877576;29;20029;-67
2021/05/26 11:59:01;;;;;;;3.10;0.80;;;;;;;;;;4878273;29;20044;-64
2021/05/26 12:01:31;;;;;;;3.95;1.05;;;;;;;;;;4877609;29;20117;-65
2021/05/26 12:03:57;;;;;;;3.22;1.67;;;;;;;;;;4878107;29;20029;-65
2021/05/26 12:06:23;;;;;;;1.42;0.70;;;;;;;;;;4878186;29;20025;-66
2021/05/26 12:08:50;;;;;;;1.60;0.80;;;;;;;;;;4877897;29;20048;-67
2021/05/26 12:11:22;;;;;;;2.35;0.70;;;;;;;;;;4877249;29;20025;-65
2021/05/26 12:13:48;;;;;;;2.37;0.97;;;;;;;;;;4877782;29;20460;-67
2021/05/26 12:16:21;;;;;;;2.90;1.00;;;;;;;;;;4878262;29;20036;-67
2021/05/26 12:19:00;;;;;;;2.78;0.80;;;;;;;;;;4878241;29;20485;-67
2021/05/26 12:21:28;;;;;;;2.88;0.82;;;;;;;;;;4878422;29;20106;-65
2021/05/26 12:24:04;;;;;;;1.63;0.75;;;;;;;;;;4877638;29;20029;-67
2021/05/26 12:26:37;;;;;;;2.85;1.02;;;;;;;;;;4878265;29;20114;-63
2021/05/26 12:29:11;;;;;;;5.35;0.90;;;;;;;;;;4877168;29;20029;-64
2021/05/26 12:31:37;;;;;;;2.25;0.70;;;;;;;;;;4877466;29;20044;-65
2021/05/26 12:34:12;;;;;;;1.17;0.68;;;;;;;;;;4860918;29;20025;-64
2021/05/26 12:36:46;;;;;;;4.90;1.05;;;;;;;;;;4877382;29;20025;-63
2021/05/26 12:39:12;;;;;;;5.35;1.02;;;;;;;;;;4877581;29;20141;-64
2021/05/26 12:41:39;;;;;;;4.63;1.13;;;;;;;;;;4877611;29;20331;-64
2021/05/26 12:44:08;;;;;;;3.03;0.70;;;;;;;;;;4877347;29;20029;-65
2021/05/26 12:46:35;;;;;;;3.40;1.08;;;;;;;;;;4877860;29;20475;-64
2021/05/26 12:49:02;;;;;;;1.35;0.68;;;;;;;;;;4861062;29;20033;-64
2021/05/26 12:51:28;;;;;;;4.45;1.67;;;;;;;;;;4877327;29;20028;-65
2021/05/26 12:53:57;;;;;;;3.08;1.23;;;;;;;;;;4877542;29;20029;-65
2021/05/26 12:56:24;;;;;;;2.47;0.73;;;;;;;;;;4877492;29;20037;-65
2021/05/26 12:58:50;;;;;;;2.30;1.00;;;;;;;;;;4877779;29;20035;-65
2021/05/26 13:01:16;;;;;;;4.38;1.10;;;;;;;;;;4877028;29;20045;-65
2021/05/26 13:03:43;;;;;;;2.22;0.90;;;;;;;;;;4877019;29;20029;-60
2021/05/26 13:06:14;;;;;;;2.90;0.90;;;;;;;;;;4877376;29;20089;-64
2021/05/26 13:08:40;;;;;;;3.35;1.05;;;;;;;;;;4876816;29;20489;-64
2021/05/26 13:11:07;;;;;;;1.67;0.70;;;;;;;;;;4876738;29;20029;-66
2021/05/26 13:13:33;;;;;;;3.55;0.90;;;;;;;;;;4876896;29;20029;-66
2021/05/26 13:16:00;;;;;;;2.55;1.00;;;;;;;;;;4877404;29;20079;-65
2021/05/26 13:18:27;;;;;;;1.95;0.80;;;;;;;;;;4877217;29;20386;-64
2021/05/26 13:20:54;;;;;;;2.13;1.08;;;;;;;;;;4876741;29;20164;-64
2021/05/26 13:23:20;;;;;;;4.75;1.00;;;;;;;;;;4876960;29;20035;-63
2021/05/26 13:25:51;;;;;;;1.40;0.80;;;;;;;;;;4876851;29;20036;-65
2021/05/26 13:28:17;;;;;;;1.52;0.70;;;;;;;;;;4876703;29;20036;-68
2021/05/26 13:30:47;;;;;;;3.90;0.82;;;;;;;;;;4876566;29;20039;-64
2021/05/26 13:33:14;;;;;;;3.78;0.80;;;;;;;;;;4876627;29;20025;-67
2021/05/26 13:35:40;;;;;;;2.78;0.77;;;;;;;;;;4876949;29;20035;-69
2021/05/26 13:38:07;;;;;;;2.30;0.90;;;;;;;;;;4877223;29;20029;-69
2021/05/26 13:40:34;;;;;;;4.03;0.95;;;;;;;;;;4876806;29;20037;-67
2021/05/26 13:43:00;;;;;;;3.28;1.10;;;;;;;;;;4877079;29;20438;-67
2021/05/26 13:45:27;;;;;;;2.67;1.05;;;;;;;;;;4877022;29;20499;-66
2021/05/26 13:47:53;;;;;;;3.05;1.20;;;;;;;;;;4859326;29;20021;-60
2021/05/26 13:50:20;;;;;;;3.30;0.70;;;;;;;;;;4877178;29;20044;-62
2021/05/26 13:52:48;;;;;;;6.10;0.73;;;;;;;;;;4877024;29;20037;-67
2021/05/26 13:55:15;;;;;;;1.77;0.80;;;;;;;;;;4876602;29;20037;-64
2021/05/26 13:57:41;;;;;;;2.30;1.05;;;;;;;;;;4876814;29;20025;-60
2021/05/26 14:00:08;;;;;;;2.35;0.70;;;;;;;;;;4876395;29;20508;-66
2021/05/26 14:02:34;;;;;;;2.67;0.85;;;;;;;;;;4876836;29;20044;-60
2021/05/26 14:05:00;;;;;;;2.80;0.80;;;;;;;;;;4876874;29;20022;-62
2021/05/26 14:07:27;;;;;;;3.15;1.58;;;;;;;;;;4876699;29;20025;-65
2021/05/26 14:09:54;;;;;;;4.90;1.92;;;;;;;;;;4875657;29;20090;-61
2021/05/26 14:12:20;;;;;;;4.35;1.40;;;;;;;;;;4876517;29;20025;-65
2021/05/26 14:14:46;;;;;;;3.22;0.90;;;;;;;;;;4876871;29;20048;-63
2021/05/26 14:17:12;;;;;;;3.97;0.65;;;;;;;;;;4859544;29;20041;-66
2021/05/26 14:19:38;;;;;;;1.92;0.82;;;;;;;;;;4876739;29;20504;-61
2021/05/26 14:22:07;;;;;;;4.22;0.85;;;;;;;;;;4876611;29;20033;-62
2021/05/26 14:24:33;;;;;;;2.83;0.80;;;;;;;;;;4876606;29;20029;-63
2021/05/26 14:26:59;;;;;;;3.08;0.90;;;;;;;;;;4876660;29;20048;-64
2021/05/26 14:29:25;;;;;;;2.67;0.95;;;;;;;;;;4876388;29;20045;-65
2021/05/26 14:31:51;;;;;;;2.78;1.00;;;;;;;;;;4876031;29;20437;-64
2021/05/26 14:34:18;;;;;;;2.10;0.80;;;;;;;;;;4876576;29;20080;-61
2021/05/26 14:36:46;;;;;;;4.75;0.88;;;;;;;;;;4878040;29;20029;-64
2021/05/26 14:39:16;;;;;;;3.83;0.75;;;;;;;;;;4875908;29;20060;-62
2021/05/26 14:41:43;;;;;;;2.92;0.98;;;;;;;;;;4875467;29;20545;-65
2021/05/26 14:44:09;;;;;;;3.33;0.85;;;;;;;;;;4876335;29;20069;-65